createdAt,value
2018-02-18T00:00:38.828Z,2.10
2018-02-18T00:03:06.423Z,2.10
2018-02-18T00:05:33.985Z,2.10
2018-02-18T00:08:01.583Z,2.20
2018-02-18T00:10:29.948Z,2.20
2018-02-18T00:12:58.310Z,2.20
2018-02-18T00:15:25.887Z,2.20
2018-02-18T00:17:53.498Z,2.20
2018-02-18T00:20:21.073Z,2.10
2018-02-18T00:22:48.661Z,1.90
2018-02-18T00:25:16.285Z,1.70
2018-02-18T00:27:43.917Z,1.60
2018-02-18T00:30:11.485Z,1.50
2018-02-18T00:32:39.089Z,1.40
2018-02-18T00:35:06.661Z,1.40
2018-02-18T00:37:34.248Z,1.40
2018-02-18T00:40:01.820Z,1.30
2018-02-18T00:42:29.398Z,1.20
2018-02-18T00:44:57.000Z,1.20
2018-02-18T00:47:24.577Z,1.10
2018-02-18T00:49:52.955Z,1.20
2018-02-18T00:52:21.306Z,1.20
2018-02-18T00:54:48.919Z,1.10
2018-02-18T00:57:16.520Z,1.00
2018-02-18T00:59:44.129Z,1.10
2018-02-18T01:02:11.706Z,1.00
2018-02-18T01:04:39.303Z,0.90
2018-02-18T01:07:06.904Z,0.80
2018-02-18T01:09:35.504Z,0.80
2018-02-18T01:12:03.074Z,0.70
2018-02-18T01:14:30.662Z,0.70
2018-02-18T01:16:58.400Z,0.60
2018-02-18T01:19:26.593Z,0.50
2018-02-18T01:21:54.169Z,0.40
2018-02-18T01:24:21.766Z,0.50
2018-02-18T01:26:49.350Z,0.50
2018-02-18T01:29:16.954Z,0.50
2018-02-18T01:31:44.535Z,0.30
2018-02-18T01:34:12.371Z,0.30
2018-02-18T01:36:39.947Z,0.30
2018-02-18T01:39:07.538Z,0.10
2018-02-18T01:41:35.818Z,0.20
2018-02-18T01:44:03.404Z,0.20
2018-02-18T01:46:30.978Z,0.30
2018-02-18T01:48:58.551Z,0.20
2018-02-18T01:51:26.155Z,0.10
2018-02-18T01:53:53.712Z,0.00
2018-02-18T01:56:21.305Z,0.10
2018-02-18T01:58:48.877Z,0.00
2018-02-18T02:01:16.469Z,0.00
2018-02-18T02:03:44.045Z,-0.10
2018-02-18T02:06:11.636Z,-0.20
2018-02-18T02:08:39.200Z,0.00
2018-02-18T02:11:06.792Z,-0.10
2018-02-18T02:13:34.368Z,-0.20
2018-02-18T02:16:01.964Z,-0.20
2018-02-18T02:18:29.542Z,-0.10
2018-02-18T02:20:57.125Z,-0.10
2018-02-18T02:23:25.461Z,-0.30
2018-02-18T02:25:53.058Z,-0.30
2018-02-18T02:28:21.401Z,-0.40
2018-02-18T02:30:49.007Z,-0.40
2018-02-18T02:33:16.581Z,-0.40
2018-02-18T02:35:44.178Z,-0.50
2018-02-18T02:38:11.762Z,-0.50
2018-02-18T02:40:40.135Z,-0.30
2018-02-18T02:43:07.709Z,-0.40
2018-02-18T02:45:35.309Z,-0.30
2018-02-18T02:48:02.886Z,-0.50
2018-02-18T02:50:30.498Z,-0.60
2018-02-18T02:52:58.082Z,-0.60
2018-02-18T02:55:25.688Z,-0.70
2018-02-18T02:57:53.275Z,-0.70
2018-02-18T03:00:21.652Z,-0.80
2018-02-18T03:02:49.996Z,-0.80
2018-02-18T03:05:17.581Z,-0.80
2018-02-18T03:07:45.182Z,-0.80
2018-02-18T03:10:12.758Z,-0.70
2018-02-18T03:12:40.362Z,-0.70
2018-02-18T03:15:07.969Z,-0.60
2018-02-18T03:17:35.569Z,-0.70
2018-02-18T03:20:03.145Z,-0.90
2018-02-18T03:22:31.519Z,-0.90
2018-02-18T03:24:59.096Z,-0.90
2018-02-18T03:27:26.698Z,-0.90
2018-02-18T03:29:54.277Z,-1.00
2018-02-18T03:32:21.889Z,-1.00
2018-02-18T03:34:49.487Z,-1.00
2018-02-18T03:37:17.074Z,-1.00
2018-02-18T03:39:44.660Z,-1.10
2018-02-18T03:42:12.267Z,-1.00
2018-02-18T03:44:39.854Z,-1.10
2018-02-18T03:47:08.232Z,-0.90
2018-02-18T03:49:37.416Z,-0.80
2018-02-18T03:52:05.020Z,-0.90
2018-02-18T03:54:32.634Z,-0.90
2018-02-18T03:57:00.429Z,-1.00
2018-02-18T03:59:28.010Z,-1.20
2018-02-18T04:01:55.608Z,-1.20
2018-02-18T04:04:23.180Z,-1.20
2018-02-18T04:06:51.560Z,-1.20
2018-02-18T04:09:19.907Z,-1.20
2018-02-18T04:11:47.496Z,-1.30
2018-02-18T04:14:15.083Z,-1.30
2018-02-18T04:16:42.688Z,-1.30
2018-02-18T04:19:10.264Z,-1.20
2018-02-18T04:21:37.945Z,-1.20
2018-02-18T04:24:05.522Z,-1.40
2018-02-18T04:26:33.121Z,-1.40
2018-02-18T04:29:00.705Z,-1.40
2018-02-18T04:31:28.277Z,-1.30
2018-02-18T04:33:55.877Z,-1.30
2018-02-18T04:36:23.458Z,-1.20
2018-02-18T04:38:51.058Z,-1.20
2018-02-18T04:41:19.406Z,-1.40
2018-02-18T04:43:47.000Z,-1.40
2018-02-18T04:46:14.573Z,-1.40
2018-02-18T04:48:42.170Z,-1.40
2018-02-18T04:51:09.736Z,-1.50
2018-02-18T04:53:37.335Z,-1.40
2018-02-18T04:56:04.936Z,-1.30
2018-02-18T04:58:32.542Z,-1.30
2018-02-18T05:01:00.130Z,-1.30
2018-02-18T05:03:27.742Z,-1.50
2018-02-18T05:05:55.420Z,-1.50
2018-02-18T05:08:23.782Z,-1.50
2018-02-18T05:10:51.366Z,-1.50
2018-02-18T05:13:18.958Z,-1.50
2018-02-18T05:15:46.544Z,-1.50
2018-02-18T05:18:14.178Z,-1.40
2018-02-18T05:20:41.745Z,-1.50
2018-02-18T05:23:09.332Z,-1.60
2018-02-18T05:25:36.906Z,-1.60
2018-02-18T05:28:04.510Z,-1.60
2018-02-18T05:30:32.091Z,-1.70
2018-02-18T05:32:59.865Z,-1.50
2018-02-18T05:35:27.460Z,-1.60
2018-02-18T05:37:55.796Z,-1.60
2018-02-18T05:40:23.401Z,-1.60
2018-02-18T05:42:50.960Z,-1.60
2018-02-18T05:45:18.576Z,-1.70
2018-02-18T05:47:46.152Z,-1.60
2018-02-18T05:50:13.740Z,-1.50
2018-02-18T05:52:42.077Z,-1.70
2018-02-18T05:55:09.678Z,-1.70
2018-02-18T05:57:37.262Z,-1.70
2018-02-18T06:00:04.861Z,-1.80
2018-02-18T06:02:32.450Z,-1.80
2018-02-18T06:05:01.704Z,-1.90
2018-02-18T06:07:29.282Z,-2.00
2018-02-18T06:09:56.874Z,-1.90
2018-02-18T06:12:24.440Z,-1.90
2018-02-18T06:14:52.031Z,-1.90
2018-02-18T06:17:19.596Z,-1.90
2018-02-18T06:19:47.199Z,-1.90
2018-02-18T06:22:14.778Z,-1.90
2018-02-18T06:24:42.410Z,-2.00
2018-02-18T06:27:09.987Z,-2.10
2018-02-18T06:29:37.582Z,-2.20
2018-02-18T06:32:05.151Z,-2.10
2018-02-18T06:34:32.754Z,-2.00
2018-02-18T06:37:01.120Z,-2.10
2018-02-18T06:39:28.713Z,-2.10
2018-02-18T06:41:56.320Z,-2.10
2018-02-18T06:44:23.906Z,-2.00
2018-02-18T06:46:51.483Z,-2.20
2018-02-18T06:49:19.107Z,-2.20
2018-02-18T06:51:46.685Z,-2.20
2018-02-18T06:54:14.249Z,-2.20
2018-02-18T06:56:42.609Z,-2.10
2018-02-18T06:59:10.202Z,-2.10
2018-02-18T07:01:37.801Z,-2.10
2018-02-18T07:04:05.378Z,-2.10
2018-02-18T07:06:32.977Z,-2.10
2018-02-18T07:09:00.555Z,-2.10
2018-02-18T07:11:28.159Z,-2.10
2018-02-18T07:13:55.729Z,-2.10
2018-02-18T07:16:23.435Z,-2.00
2018-02-18T07:18:51.005Z,-2.00
2018-02-18T07:21:18.605Z,-1.90
2018-02-18T07:23:46.189Z,-1.90
2018-02-18T07:26:14.548Z,-2.00
2018-02-18T07:28:42.898Z,-2.00
2018-02-18T07:31:10.491Z,-2.00
2018-02-18T07:33:38.068Z,-1.90
2018-02-18T07:36:05.665Z,-1.80
2018-02-18T07:38:33.242Z,-1.70
2018-02-18T07:41:00.839Z,-1.70
2018-02-18T07:43:29.181Z,-1.10
2018-02-18T07:45:56.774Z,-1.10
2018-02-18T07:48:25.152Z,-0.10
2018-02-18T07:50:52.741Z,-0.10
2018-02-18T07:53:20.308Z,0.50
2018-02-18T07:55:47.898Z,1.00
2018-02-18T07:58:15.472Z,1.60
2018-02-18T08:00:43.839Z,2.50
2018-02-18T08:03:11.413Z,2.50
2018-02-18T08:05:39.006Z,3.00
2018-02-18T08:08:06.599Z,3.50
2018-02-18T08:10:34.185Z,4.00
2018-02-18T08:13:01.777Z,4.40
2018-02-18T08:15:29.350Z,4.90
2018-02-18T08:17:56.950Z,5.20
2018-02-18T08:20:24.521Z,5.60
2018-02-18T08:22:52.887Z,6.40
2018-02-18T08:25:20.466Z,6.40
2018-02-18T08:27:48.074Z,6.90
2018-02-18T08:30:15.646Z,7.20
2018-02-18T08:32:43.233Z,7.60
2018-02-18T08:35:10.815Z,8.00
2018-02-18T08:37:39.165Z,8.70
2018-02-18T08:40:06.738Z,8.70
2018-02-18T08:42:34.414Z,9.10
2018-02-18T08:45:01.987Z,9.50
2018-02-18T08:47:29.575Z,9.80
2018-02-18T08:49:57.147Z,10.00
2018-02-18T08:52:24.733Z,10.20
2018-02-18T08:54:53.074Z,10.50
2018-02-18T08:57:20.665Z,10.50
2018-02-18T08:59:48.229Z,10.50
2018-02-18T09:02:15.834Z,10.60
2018-02-18T09:04:43.406Z,10.70
2018-02-18T09:07:11.001Z,10.80
2018-02-18T09:09:38.572Z,10.90
2018-02-18T09:12:06.950Z,11.50
2018-02-18T09:14:34.534Z,11.50
2018-02-18T09:17:02.107Z,11.80
2018-02-18T09:19:29.708Z,12.00
2018-02-18T09:21:57.283Z,12.30
2018-02-18T09:24:25.645Z,12.40
2018-02-18T09:26:53.221Z,12.30
2018-02-18T09:29:20.826Z,12.70
2018-02-18T09:31:48.407Z,13.00
2018-02-18T09:34:16.007Z,13.30
2018-02-18T09:36:43.581Z,13.70
2018-02-18T09:39:11.186Z,14.10
2018-02-18T09:41:38.963Z,14.30
2018-02-18T09:44:06.580Z,14.30
2018-02-18T09:46:34.145Z,14.60
2018-02-18T09:49:01.744Z,15.10
2018-02-18T09:51:29.312Z,15.20
2018-02-18T09:53:56.917Z,15.40
2018-02-18T09:56:24.493Z,15.50
2018-02-18T09:58:52.100Z,15.70
2018-02-18T10:01:20.437Z,15.90
2018-02-18T10:03:48.038Z,15.80
2018-02-18T10:06:16.373Z,16.20
2018-02-18T10:08:43.973Z,16.10
2018-02-18T10:11:11.550Z,16.30
2018-02-18T10:13:39.122Z,16.10
2018-02-18T10:16:06.718Z,16.10
2018-02-18T10:18:34.302Z,15.60
2018-02-18T10:21:02.661Z,14.90
2018-02-18T10:23:30.232Z,14.90
2018-02-18T10:25:57.830Z,14.70
2018-02-18T10:28:25.683Z,14.20
2018-02-18T10:30:53.274Z,13.70
2018-02-18T10:33:20.841Z,13.20
2018-02-18T10:35:48.439Z,13.00
2018-02-18T10:38:16.787Z,11.90
2018-02-18T10:40:44.394Z,11.90
2018-02-18T10:43:11.977Z,11.60
2018-02-18T10:45:39.573Z,11.70
2018-02-18T10:48:07.154Z,11.40
2018-02-18T10:50:35.530Z,10.60
2018-02-18T10:53:03.870Z,10.50
2018-02-18T10:55:31.465Z,10.40
2018-02-18T10:57:59.797Z,9.90
2018-02-18T11:00:27.399Z,9.80
2018-02-18T11:02:54.964Z,9.50
2018-02-18T11:05:23.322Z,9.10
2018-02-18T11:07:50.903Z,9.10
2018-02-18T11:10:18.498Z,9.00
2018-02-18T11:12:46.104Z,9.10
2018-02-18T11:15:13.950Z,9.00
2018-02-18T11:17:41.609Z,9.10
2018-02-18T11:20:09.164Z,9.30
2018-02-18T11:22:36.739Z,9.00
2018-02-18T11:25:04.363Z,8.90
2018-02-18T11:27:31.962Z,8.80
2018-02-18T11:29:59.530Z,8.50
2018-02-18T11:32:27.121Z,8.50
2018-02-18T11:34:54.690Z,8.30
2018-02-18T11:37:22.282Z,8.30
2018-02-18T11:39:49.844Z,8.30
2018-02-18T11:42:17.438Z,8.10
2018-02-18T11:44:45.769Z,7.80
2018-02-18T11:47:13.371Z,7.80
2018-02-18T11:49:40.936Z,7.80
2018-02-18T11:52:09.293Z,7.30
2018-02-18T11:54:37.641Z,7.20
2018-02-18T11:57:05.229Z,7.20
2018-02-18T11:59:32.796Z,7.20
2018-02-18T12:02:00.382Z,7.10
2018-02-18T12:04:28.718Z,7.00
2018-02-18T12:06:56.310Z,7.00
2018-02-18T12:09:24.930Z,6.60
2018-02-18T12:11:52.570Z,6.60
2018-02-18T12:14:20.889Z,6.70
2018-02-18T12:16:48.490Z,6.70
2018-02-18T12:19:16.829Z,6.60
2018-02-18T12:21:44.425Z,6.60
2018-02-18T12:24:12.763Z,6.40
2018-02-18T12:26:40.360Z,6.30
2018-02-18T12:29:08.696Z,6.30
2018-02-18T12:31:36.290Z,6.30
2018-02-18T12:34:04.621Z,6.40
2018-02-18T12:36:32.219Z,6.40
2018-02-18T12:38:59.794Z,6.40
2018-02-18T12:41:28.178Z,6.30
2018-02-18T12:43:56.515Z,6.40
2018-02-18T12:46:24.090Z,6.40
2018-02-18T12:48:51.679Z,6.40
2018-02-18T12:51:19.241Z,6.30
2018-02-18T12:53:46.825Z,6.30
2018-02-18T12:56:14.393Z,6.30
2018-02-18T12:58:41.985Z,6.30
2018-02-18T13:01:09.562Z,6.20
2018-02-18T13:03:37.151Z,6.20
2018-02-18T13:06:04.743Z,6.00
2018-02-18T13:08:32.341Z,6.20
2018-02-18T13:11:00.681Z,6.10
2018-02-18T13:13:28.307Z,6.10
2018-02-18T13:15:55.880Z,6.10
2018-02-18T13:18:23.482Z,6.20
2018-02-18T13:20:51.827Z,6.10
2018-02-18T13:23:19.422Z,6.10
2018-02-18T13:25:47.771Z,6.10
2018-02-18T13:28:15.368Z,6.10
2018-02-18T13:30:42.946Z,6.20
2018-02-18T13:33:10.541Z,6.00
2018-02-18T13:35:38.111Z,5.90
2018-02-18T13:38:05.751Z,5.80
2018-02-18T13:40:34.237Z,5.80
2018-02-18T13:43:01.887Z,5.80
2018-02-18T13:45:29.453Z,5.80
2018-02-18T13:47:57.033Z,5.70
2018-02-18T13:50:24.644Z,5.80
2018-02-18T13:52:52.250Z,5.90
2018-02-18T13:55:19.861Z,5.80
2018-02-18T13:57:47.477Z,5.60
2018-02-18T14:00:15.054Z,5.30
2018-02-18T14:02:42.631Z,5.40
2018-02-18T14:05:10.232Z,5.50
2018-02-18T14:07:37.797Z,5.50
2018-02-18T14:10:05.389Z,5.60
2018-02-18T14:12:32.958Z,5.90
2018-02-18T14:15:00.580Z,5.90
2018-02-18T14:17:28.162Z,5.90
2018-02-18T14:19:55.753Z,5.90
2018-02-18T14:22:23.343Z,5.80
2018-02-18T14:24:50.929Z,5.90
2018-02-18T14:27:18.516Z,5.80
2018-02-18T14:29:46.110Z,5.60
2018-02-18T14:32:14.394Z,5.60
2018-02-18T14:34:41.991Z,5.50
2018-02-18T14:37:09.561Z,5.50
2018-02-18T14:39:37.149Z,5.60
2018-02-18T14:42:16.587Z,5.70
2018-02-18T14:45:08.657Z,5.60
2018-02-18T14:47:48.014Z,5.70
2018-02-18T14:50:27.317Z,5.60
2018-02-18T14:53:06.621Z,5.70
2018-02-18T14:55:46.129Z,5.70
2018-02-18T14:58:14.476Z,5.70
2018-02-18T15:00:42.080Z,5.70
2018-02-18T15:03:09.662Z,5.70
2018-02-18T15:05:37.305Z,5.70
2018-02-18T15:08:04.877Z,6.00
2018-02-18T15:10:32.488Z,5.90
2018-02-18T15:13:00.065Z,5.80
2018-02-18T15:15:27.662Z,5.90
2018-02-18T15:17:55.227Z,5.80
2018-02-18T15:20:22.826Z,5.80
2018-02-18T15:22:50.406Z,5.70
2018-02-18T15:25:18.006Z,5.60
2018-02-18T15:27:45.608Z,5.50
2018-02-18T15:30:13.209Z,5.60
2018-02-18T15:32:40.773Z,5.50
2018-02-18T15:35:08.357Z,5.50
2018-02-18T15:37:35.931Z,5.40
2018-02-18T15:40:03.560Z,5.40
2018-02-18T15:42:31.134Z,5.40
2018-02-18T15:44:58.733Z,5.30
2018-02-18T15:47:26.307Z,5.30
2018-02-18T15:49:54.666Z,5.20
2018-02-18T15:52:22.238Z,5.20
2018-02-18T15:54:49.849Z,5.10
2018-02-18T15:57:17.417Z,5.10
2018-02-18T15:59:45.021Z,5.20
2018-02-18T16:02:13.359Z,5.10
2018-02-18T16:04:40.921Z,5.10
2018-02-18T16:07:08.504Z,5.10
2018-02-18T16:09:36.833Z,5.00
2018-02-18T16:12:04.449Z,4.90
2018-02-18T16:14:32.024Z,5.00
2018-02-18T16:16:59.622Z,5.00
2018-02-18T16:19:27.189Z,4.90
2018-02-18T16:21:54.790Z,4.80
2018-02-18T16:24:23.153Z,4.70
2018-02-18T16:26:51.505Z,4.70
2018-02-18T16:29:19.511Z,4.60
2018-02-18T16:31:47.097Z,4.90
2018-02-18T16:34:14.664Z,4.70
2018-02-18T16:36:42.258Z,4.60
2018-02-18T16:39:09.829Z,4.50
2018-02-18T16:41:37.420Z,4.50
2018-02-18T16:44:04.997Z,4.50
2018-02-18T16:46:32.641Z,4.40
2018-02-18T16:49:00.411Z,4.30
2018-02-18T16:51:28.002Z,4.20
2018-02-18T16:53:55.565Z,4.00
2018-02-18T16:56:23.163Z,4.00
2018-02-18T16:58:51.499Z,3.90
2018-02-18T17:01:19.094Z,4.00
2018-02-18T17:03:46.674Z,3.70
2018-02-18T17:06:14.274Z,3.70
2018-02-18T17:08:41.840Z,3.70
2018-02-18T17:11:09.418Z,3.70
2018-02-18T17:13:37.799Z,3.60
2018-02-18T17:16:05.373Z,3.60
2018-02-18T17:18:32.957Z,3.50
2018-02-18T17:21:00.525Z,3.40
2018-02-18T17:23:28.447Z,3.50
2018-02-18T17:25:56.045Z,3.40
2018-02-18T17:28:23.633Z,3.20
2018-02-18T17:30:51.197Z,3.10
2018-02-18T17:33:18.855Z,3.10
2018-02-18T17:35:46.401Z,3.10
2018-02-18T17:38:13.994Z,3.10
2018-02-18T17:40:41.565Z,3.20
2018-02-18T17:43:09.158Z,3.10
2018-02-18T17:45:36.726Z,3.10
2018-02-18T17:48:04.323Z,3.10
2018-02-18T17:50:31.897Z,3.00
2018-02-18T17:52:59.500Z,3.10
2018-02-18T17:55:27.074Z,2.90
2018-02-18T17:57:54.661Z,2.90
2018-02-18T18:00:22.243Z,2.90
2018-02-18T18:02:50.611Z,2.90
2018-02-18T18:05:18.182Z,2.90
2018-02-18T18:07:45.769Z,2.80
2018-02-18T18:10:13.339Z,2.80
2018-02-18T18:12:40.929Z,2.80
2018-02-18T18:15:10.064Z,2.70
2018-02-18T18:17:37.609Z,2.70
2018-02-18T18:20:05.197Z,2.70
2018-02-18T18:22:32.762Z,2.70
2018-02-18T18:25:00.349Z,2.70
2018-02-18T18:27:27.926Z,2.70
2018-02-18T18:29:56.315Z,2.70
2018-02-18T18:32:23.890Z,2.70
2018-02-18T18:34:52.257Z,2.90
2018-02-18T18:37:19.821Z,2.80
2018-02-18T18:39:47.408Z,2.80
2018-02-18T18:42:14.984Z,2.80
2018-02-18T18:44:42.583Z,2.80
2018-02-18T18:47:10.152Z,2.90
2018-02-18T18:49:38.515Z,3.20
2018-02-18T18:52:06.089Z,3.10
2018-02-18T18:54:33.690Z,3.00
2018-02-18T18:57:01.263Z,2.90
2018-02-18T18:59:30.878Z,2.80
2018-02-18T19:01:58.983Z,2.80
2018-02-18T19:04:26.621Z,2.70
2018-02-18T19:06:54.189Z,2.70
2018-02-18T19:09:21.776Z,2.70
2018-02-18T19:11:50.145Z,2.60
2018-02-18T19:14:18.513Z,2.60
2018-02-18T19:16:46.299Z,2.60
2018-02-18T19:19:13.945Z,2.50
2018-02-18T19:21:42.290Z,2.80
2018-02-18T19:24:09.894Z,2.70
2018-02-18T19:26:38.234Z,2.70
2018-02-18T19:29:05.831Z,2.60
2018-02-18T19:31:34.175Z,2.80
2018-02-18T19:34:01.786Z,2.80
2018-02-18T19:36:29.354Z,2.80
2018-02-18T19:38:56.926Z,2.80
2018-02-18T19:41:24.511Z,2.80
2018-02-18T19:43:52.078Z,2.80
2018-02-18T19:46:19.670Z,2.70
2018-02-18T19:48:47.257Z,2.70
2018-02-18T19:51:14.847Z,2.60
2018-02-18T19:53:42.419Z,2.60
2018-02-18T19:56:10.018Z,2.50
2018-02-18T19:58:37.586Z,2.50
2018-02-18T20:01:05.178Z,2.50
2018-02-18T20:03:32.753Z,2.40
2018-02-18T20:06:00.338Z,2.40
2018-02-18T20:08:28.668Z,2.50
2018-02-18T20:10:56.258Z,2.50
2018-02-18T20:13:23.835Z,2.40
2018-02-18T20:15:52.201Z,2.20
2018-02-18T20:18:19.783Z,2.20
2018-02-18T20:20:47.378Z,2.10
2018-02-18T20:23:14.951Z,2.00
2018-02-18T20:25:43.187Z,1.90
2018-02-18T20:28:10.926Z,1.90
2018-02-18T20:30:38.549Z,1.90
2018-02-18T20:33:06.130Z,1.80
2018-02-18T20:35:33.717Z,1.90
2018-02-18T20:38:01.282Z,1.80
2018-02-18T20:40:28.878Z,2.00
2018-02-18T20:42:56.458Z,2.00
2018-02-18T20:45:24.060Z,1.90
2018-02-18T20:47:51.625Z,1.90
2018-02-18T20:50:19.242Z,1.90
2018-02-18T20:52:46.815Z,1.90
2018-02-18T20:55:14.409Z,1.80
2018-02-18T20:57:41.997Z,1.80
2018-02-18T21:00:09.562Z,1.80
2018-02-18T21:02:37.156Z,1.70
2018-02-18T21:05:04.734Z,1.70
2018-02-18T21:07:32.330Z,1.90
2018-02-18T21:09:59.909Z,1.80
2018-02-18T21:12:27.505Z,1.90
2018-02-18T21:14:55.076Z,1.90
2018-02-18T21:17:22.661Z,1.80
2018-02-18T21:19:50.230Z,1.70
2018-02-18T21:22:17.822Z,1.80
2018-02-18T21:24:45.382Z,1.90
2018-02-18T21:27:13.740Z,1.90
2018-02-18T21:29:41.311Z,1.90
2018-02-18T21:32:08.897Z,1.90
2018-02-18T21:34:36.461Z,2.00
2018-02-18T21:37:04.049Z,2.10
2018-02-18T21:39:31.616Z,2.00
2018-02-18T21:41:59.207Z,2.00
2018-02-18T21:44:26.776Z,2.10
2018-02-18T21:46:54.362Z,2.00
2018-02-18T21:49:22.130Z,2.10
2018-02-18T21:51:49.716Z,2.10
2018-02-18T21:54:17.281Z,2.00
2018-02-18T21:56:44.874Z,2.00
2018-02-18T21:59:13.214Z,2.10
2018-02-18T22:01:40.814Z,2.10
2018-02-18T22:04:09.165Z,2.10
2018-02-18T22:06:36.757Z,2.00
2018-02-18T22:09:04.325Z,2.10
2018-02-18T22:11:31.929Z,2.10
2018-02-18T22:13:59.499Z,2.20
2018-02-18T22:16:27.097Z,2.10
2018-02-18T22:18:54.681Z,2.10
2018-02-18T22:21:22.251Z,2.20
2018-02-18T22:23:49.845Z,2.20
2018-02-18T22:26:17.414Z,2.20
2018-02-18T22:28:45.773Z,2.20
2018-02-18T22:31:13.347Z,2.20
2018-02-18T22:33:40.937Z,2.10
2018-02-18T22:36:08.502Z,2.20
2018-02-18T22:38:36.097Z,2.30
2018-02-18T22:41:03.667Z,2.20
2018-02-18T22:43:31.266Z,2.20
2018-02-18T22:45:58.839Z,2.20
2018-02-18T22:48:26.425Z,2.20
2018-02-18T22:50:54.767Z,2.10
2018-02-18T22:53:22.362Z,2.10
2018-02-18T22:55:49.938Z,2.10
2018-02-18T22:58:17.662Z,2.10
2018-02-18T23:00:45.242Z,2.30
2018-02-18T23:03:12.839Z,2.20
2018-02-18T23:05:46.887Z,2.10
2018-02-18T23:08:14.472Z,2.10
2018-02-18T23:10:42.038Z,2.00
2018-02-18T23:13:10.534Z,2.10
2018-02-18T23:15:38.109Z,2.10
2018-02-18T23:18:06.468Z,2.20
2018-02-18T23:20:45.700Z,2.10
2018-02-18T23:23:13.294Z,2.20
2018-02-18T23:25:40.866Z,2.10
2018-02-18T23:28:08.458Z,2.10
2018-02-18T23:30:36.797Z,2.10
2018-02-18T23:33:04.380Z,2.10
2018-02-18T23:35:31.959Z,2.20
2018-02-18T23:37:59.675Z,2.20
2018-02-18T23:40:27.241Z,2.20
2018-02-18T23:42:54.809Z,2.20
2018-02-18T23:45:22.406Z,2.30
2018-02-18T23:47:49.983Z,2.30
2018-02-18T23:50:17.578Z,2.30
2018-02-18T23:52:45.146Z,2.30
2018-02-18T23:55:12.728Z,2.30
2018-02-18T23:57:40.292Z,2.30
